createdAt,value
2022-08-28T00:01:13.295Z,101978.31
2022-08-28T00:03:39.642Z,101988.28
2022-08-28T00:06:06.251Z,101979.97
2022-08-28T00:08:32.625Z,102001.19
2022-08-28T00:10:59.073Z,102005.00
2022-08-28T00:13:26.062Z,102010.00
2022-08-28T00:15:56.923Z,102001.03
2022-08-28T00:18:23.592Z,102007.44
2022-08-28T00:20:51.248Z,101997.47
2022-08-28T00:23:18.344Z,101995.22
2022-08-28T00:25:44.866Z,101993.09
2022-08-28T00:28:24.325Z,101998.81
2022-08-28T00:30:53.938Z,101988.56
2022-08-28T00:33:23.893Z,101999.34
2022-08-28T00:35:51.406Z,101995.94
2022-08-28T00:38:19.271Z,101993.09
2022-08-28T00:40:49.553Z,101982.19
2022-08-28T00:43:36.782Z,102001.28
2022-08-28T00:46:06.637Z,102002.72
2022-08-28T00:48:33.373Z,102003.72
2022-08-28T00:51:00.932Z,101985.72
2022-08-28T00:53:30.037Z,101992.84
2022-08-28T00:55:59.635Z,102000.09
2022-08-28T00:58:26.078Z,101984.44
2022-08-28T01:00:52.473Z,101997.63
2022-08-28T01:03:18.870Z,101995.22
2022-08-28T01:05:45.332Z,101993.41
2022-08-28T01:08:11.929Z,101986.25
2022-08-28T01:10:42.333Z,101996.38
2022-08-28T01:13:08.973Z,101983.00
2022-08-28T01:15:37.475Z,101987.78
2022-08-28T01:18:08.395Z,101987.78
2022-08-28T01:20:42.112Z,101983.53
2022-08-28T01:23:34.341Z,101989.03
2022-08-28T01:26:00.780Z,101991.19
2022-08-28T01:28:27.932Z,101988.81
2022-08-28T01:30:54.335Z,102001.75
2022-08-28T01:33:27.906Z,101998.66
2022-08-28T01:35:54.901Z,101998.22
2022-08-28T01:38:26.737Z,101997.22
2022-08-28T01:40:54.460Z,101994.78
2022-08-28T01:43:23.764Z,102001.03
2022-08-28T01:45:54.437Z,102000.00
2022-08-28T01:48:23.580Z,102002.00
2022-08-28T01:50:50.220Z,102000.09
2022-08-28T01:53:19.641Z,102013.53
2022-08-28T01:55:52.115Z,102010.59
2022-08-28T01:58:19.137Z,102007.69
2022-08-28T02:00:45.587Z,102010.81
2022-08-28T02:03:11.982Z,102012.00
2022-08-28T02:05:39.868Z,102012.34
2022-08-28T02:08:07.805Z,102016.28
2022-08-28T02:10:36.708Z,102002.75
2022-08-28T02:13:05.488Z,102005.84
2022-08-28T02:15:32.956Z,102011.94
2022-08-28T02:18:00.231Z,102009.66
2022-08-28T02:20:27.493Z,102011.47
2022-08-28T02:22:53.900Z,102011.78
2022-08-28T02:25:20.273Z,102008.56
2022-08-28T02:27:46.724Z,101999.16
2022-08-28T02:30:16.296Z,102016.16
2022-08-28T02:32:44.469Z,102019.09
2022-08-28T02:35:12.254Z,102022.06
2022-08-28T02:37:38.883Z,102017.16
2022-08-28T02:40:06.071Z,102013.78
2022-08-28T02:42:32.450Z,102020.28
2022-08-28T02:44:58.859Z,102018.00
2022-08-28T02:47:25.300Z,102012.28
2022-08-28T02:49:51.650Z,102002.06
2022-08-28T02:52:18.117Z,102020.00
2022-08-28T02:54:44.545Z,102021.50
2022-08-28T02:57:10.877Z,102009.28
2022-08-28T02:59:38.197Z,102019.25
2022-08-28T03:02:06.252Z,102027.75
2022-08-28T03:04:34.188Z,102024.81
2022-08-28T03:07:00.558Z,102007.69
2022-08-28T03:09:27.093Z,102010.47
2022-08-28T03:11:53.655Z,102009.97
2022-08-28T03:14:23.535Z,102022.56
2022-08-28T03:16:49.941Z,102015.06
2022-08-28T03:19:16.567Z,102012.13
2022-08-28T03:21:43.018Z,102007.56
2022-08-28T03:24:09.572Z,102028.16
2022-08-28T03:26:36.153Z,102031.09
2022-08-28T03:29:02.677Z,102013.47
2022-08-28T03:31:30.209Z,102017.88
2022-08-28T03:33:56.569Z,102030.94
2022-08-28T03:36:24.945Z,102038.63
2022-08-28T03:38:53.249Z,102028.19
2022-08-28T03:41:21.768Z,102035.53
2022-08-28T03:43:48.127Z,102041.06
2022-08-28T03:46:22.202Z,102044.69
2022-08-28T03:48:48.569Z,102023.94
2022-08-28T03:51:29.408Z,102038.31
2022-08-28T03:53:57.876Z,102031.78
2022-08-28T03:56:26.231Z,102038.31
2022-08-28T03:58:55.057Z,102048.44
2022-08-28T04:01:21.927Z,102045.00
2022-08-28T04:03:48.562Z,102034.41
2022-08-28T04:06:15.204Z,102038.47
2022-08-28T04:08:42.077Z,102030.13
2022-08-28T04:11:08.451Z,102038.31
2022-08-28T04:13:34.804Z,102033.41
2022-08-28T04:16:05.067Z,102049.25
2022-08-28T04:18:32.740Z,102041.59
2022-08-28T04:21:07.569Z,102056.91
2022-08-28T04:23:35.623Z,102064.09
2022-08-28T04:26:05.149Z,102065.09
2022-08-28T04:28:31.897Z,102068.88
2022-08-28T04:30:58.884Z,102069.84
2022-08-28T04:33:27.270Z,102071.00
2022-08-28T04:35:54.455Z,102059.72
2022-08-28T04:38:21.086Z,102052.34
2022-08-28T04:40:48.097Z,102071.28
2022-08-28T04:43:14.595Z,102067.72
2022-08-28T04:45:45.596Z,102079.63
2022-08-28T04:48:13.765Z,102069.03
2022-08-28T04:50:48.422Z,102069.84
2022-08-28T04:53:17.210Z,102068.69
2022-08-28T04:55:54.557Z,102070.97
2022-08-28T04:58:24.299Z,102083.91
2022-08-28T05:00:52.829Z,102084.22
2022-08-28T05:03:19.795Z,102081.44
2022-08-28T05:05:49.829Z,102079.63
2022-08-28T05:08:18.220Z,102090.75
2022-08-28T05:10:44.974Z,102091.91
2022-08-28T05:13:13.013Z,102094.00
2022-08-28T05:15:40.357Z,102097.78
2022-08-28T05:18:06.737Z,102099.72
2022-08-28T05:20:37.957Z,102096.44
2022-08-28T05:23:06.154Z,102088.63
2022-08-28T05:25:37.177Z,102096.91
2022-08-28T05:28:04.229Z,102097.34
2022-08-28T05:30:30.549Z,102099.19
2022-08-28T05:32:56.958Z,102079.00
2022-08-28T05:35:23.338Z,102107.09
2022-08-28T05:37:49.682Z,102082.03
2022-08-28T05:40:16.647Z,102102.16
2022-08-28T05:42:43.058Z,102102.69
2022-08-28T05:45:09.452Z,102097.03
2022-08-28T05:47:35.784Z,102087.41
2022-08-28T05:50:02.152Z,102097.53
2022-08-28T05:52:28.660Z,102090.69
2022-08-28T05:54:55.541Z,102091.38
2022-08-28T05:57:21.868Z,102097.66
2022-08-28T05:59:48.312Z,102113.47
2022-08-28T06:02:14.676Z,102111.78
2022-08-28T06:04:41.016Z,102102.81
2022-08-28T06:07:07.469Z,102104.56
2022-08-28T06:09:33.860Z,102101.53
2022-08-28T06:12:01.952Z,102115.13
2022-08-28T06:14:29.419Z,102100.88
2022-08-28T06:16:56.803Z,102111.28
2022-08-28T06:19:25.868Z,102118.16
2022-08-28T06:21:56.218Z,102119.44
2022-08-28T06:24:23.469Z,102105.44
2022-08-28T06:26:49.828Z,102118.00
2022-08-28T06:29:16.501Z,102120.72
2022-08-28T06:31:42.972Z,102129.56
2022-08-28T06:34:09.875Z,102123.75
2022-08-28T06:36:40.817Z,102126.78
2022-08-28T06:39:08.891Z,102127.69
2022-08-28T06:41:35.677Z,102118.66
2022-08-28T06:44:02.210Z,102125.88
2022-08-28T06:46:28.692Z,102123.44
2022-08-28T06:48:55.077Z,102133.56
2022-08-28T06:51:24.869Z,102129.91
2022-08-28T06:53:51.671Z,102126.34
2022-08-28T06:56:26.187Z,102136.72
2022-08-28T06:58:55.128Z,102129.00
2022-08-28T07:01:27.622Z,102140.69
2022-08-28T07:03:55.783Z,102127.38
2022-08-28T07:06:23.297Z,102123.34
2022-08-28T07:08:50.277Z,102136.09
2022-08-28T07:11:26.664Z,102133.63
2022-08-28T07:13:54.788Z,102127.34
2022-08-28T07:16:24.527Z,102132.09
2022-08-28T07:18:51.015Z,102138.66
2022-08-28T07:21:17.642Z,102128.28
2022-08-28T07:23:44.913Z,102134.34
2022-08-28T07:26:15.683Z,102142.28
2022-08-28T07:28:42.333Z,102147.34
2022-08-28T07:31:11.824Z,102150.81
2022-08-28T07:33:40.213Z,102147.06
2022-08-28T07:36:15.721Z,102151.16
2022-08-28T07:38:48.461Z,102141.75
2022-08-28T07:41:20.167Z,102144.41
2022-08-28T07:43:46.897Z,102143.84
2022-08-28T07:46:13.338Z,102139.53
2022-08-28T07:48:41.270Z,102146.94
2022-08-28T07:51:09.061Z,102140.34
2022-08-28T07:53:36.653Z,102148.13
2022-08-28T07:56:04.409Z,102138.50
2022-08-28T07:58:30.768Z,102143.94
2022-08-28T08:00:58.434Z,102149.44
2022-08-28T08:03:24.941Z,102151.38
2022-08-28T08:06:02.494Z,102140.84
2022-08-28T08:08:33.329Z,102157.03
2022-08-28T08:11:11.286Z,102145.63
2022-08-28T08:13:43.696Z,102155.19
2022-08-28T08:16:13.285Z,102153.56
2022-08-28T08:18:41.262Z,102149.34
2022-08-28T08:21:10.047Z,102151.41
2022-08-28T08:23:36.675Z,102155.13
2022-08-28T08:26:06.928Z,102159.78
2022-08-28T08:28:34.917Z,102158.44
2022-08-28T08:31:11.488Z,102155.53
2022-08-28T08:33:40.811Z,102158.09
2022-08-28T08:36:07.692Z,102154.47
2022-08-28T08:38:35.065Z,102163.84
2022-08-28T08:41:05.617Z,102155.97
2022-08-28T08:43:45.678Z,102155.56
2022-08-28T08:46:12.193Z,102164.50
2022-08-28T08:48:42.962Z,102165.38
2022-08-28T08:51:25.661Z,102164.53
2022-08-28T08:54:05.303Z,102150.25
2022-08-28T08:56:34.486Z,102163.91
2022-08-28T08:59:04.213Z,102143.97
2022-08-28T09:01:41.787Z,102155.91
2022-08-28T09:04:15.911Z,102145.06
2022-08-28T09:07:09.741Z,102147.94
2022-08-28T09:09:42.172Z,102159.41
2022-08-28T09:12:14.175Z,102160.06
2022-08-28T09:14:49.602Z,102155.97
2022-08-28T09:17:23.385Z,102154.78
2022-08-28T09:19:49.745Z,102145.28
2022-08-28T09:22:16.342Z,102155.69
2022-08-28T09:24:43.527Z,102159.00
2022-08-28T09:27:29.902Z,102156.19
2022-08-28T09:30:07.436Z,102147.56
2022-08-28T09:32:37.493Z,102160.00
2022-08-28T09:35:39.208Z,102158.47
2022-08-28T09:38:27.685Z,102162.59
2022-08-28T09:41:10.446Z,102159.09
2022-08-28T09:43:37.593Z,102159.09
2022-08-28T09:46:07.929Z,102152.03
2022-08-28T09:48:41.536Z,102155.59
2022-08-28T09:51:11.367Z,102159.38
2022-08-28T09:54:06.375Z,102162.84
2022-08-28T09:56:39.515Z,102155.03
2022-08-28T09:59:08.993Z,102150.06
2022-08-28T10:01:44.601Z,102137.81
2022-08-28T10:04:14.370Z,102145.69
2022-08-28T10:06:43.778Z,102145.56
2022-08-28T10:09:47.959Z,102150.47
2022-08-28T10:12:20.274Z,102129.09
2022-08-28T10:14:58.869Z,102148.41
2022-08-28T10:17:53.311Z,102145.16
2022-08-28T10:20:25.821Z,102141.97
2022-08-28T10:23:17.670Z,102134.47
2022-08-28T10:26:28.566Z,102134.97
2022-08-28T10:28:59.974Z,102143.53
2022-08-28T10:31:56.461Z,102132.81
2022-08-28T10:34:50.529Z,102143.03
2022-08-28T10:37:28.088Z,102144.91
2022-08-28T10:40:00.522Z,102127.41
2022-08-28T10:42:36.479Z,102142.25
2022-08-28T10:45:10.562Z,102153.00
2022-08-28T10:47:40.088Z,102140.56
2022-08-28T10:50:21.899Z,102148.81
2022-08-28T10:53:01.918Z,102143.81
2022-08-28T10:55:59.796Z,102137.75
2022-08-28T10:58:27.399Z,102142.44
2022-08-28T11:00:58.883Z,102140.22
2022-08-28T11:03:35.691Z,102144.81
2022-08-28T11:06:13.804Z,102151.09
2022-08-28T11:08:40.405Z,102148.34
2022-08-28T11:11:12.846Z,102142.31
2022-08-28T11:13:48.321Z,102150.38
2022-08-28T11:16:20.591Z,102145.88
2022-08-28T11:18:49.774Z,102137.50
2022-08-28T11:21:23.986Z,102143.69
2022-08-28T11:24:01.216Z,102135.19
2022-08-28T11:26:40.036Z,102143.50
2022-08-28T11:29:06.882Z,102137.00
2022-08-28T11:31:37.927Z,102142.16
2022-08-28T11:34:04.341Z,102137.13
2022-08-28T11:36:30.657Z,102137.69
2022-08-28T11:38:56.945Z,102133.03
2022-08-28T11:41:38.324Z,102133.59
2022-08-28T11:44:10.708Z,102151.06
2022-08-28T11:46:43.311Z,102159.94
2022-08-28T11:49:31.515Z,102155.03
2022-08-28T11:52:16.757Z,102159.44
2022-08-28T11:54:51.492Z,102157.25
2022-08-28T11:57:24.227Z,102139.78
2022-08-28T12:00:26.113Z,102149.72
2022-08-28T12:03:15.889Z,102149.78
2022-08-28T12:05:48.584Z,102139.56
2022-08-28T12:08:49.740Z,102142.81
2022-08-28T12:11:41.069Z,102137.59
2022-08-28T12:14:12.391Z,102142.72
2022-08-28T12:17:03.337Z,102143.94
2022-08-28T12:19:41.225Z,102147.06
2022-08-28T12:22:21.836Z,102147.00
2022-08-28T12:24:57.038Z,102151.91
2022-08-28T12:27:24.911Z,102149.38
2022-08-28T12:29:55.496Z,102154.53
2022-08-28T12:32:48.646Z,102143.38
2022-08-28T12:35:21.475Z,102144.00
2022-08-28T12:37:53.764Z,102134.44
2022-08-28T12:40:49.182Z,102135.22
2022-08-28T12:43:25.719Z,102151.41
2022-08-28T12:45:56.407Z,102146.47
2022-08-28T12:48:25.818Z,102151.72
2022-08-28T12:50:58.041Z,102147.63
2022-08-28T12:53:25.941Z,102142.03
2022-08-28T12:55:53.561Z,102137.19
2022-08-28T12:58:30.896Z,102148.59
2022-08-28T13:01:02.080Z,102142.47
2022-08-28T13:03:28.788Z,102146.47
2022-08-28T13:06:04.668Z,102135.09
2022-08-28T13:08:32.823Z,102144.59
2022-08-28T13:10:59.392Z,102134.97
2022-08-28T13:13:34.556Z,102136.88
2022-08-28T13:16:04.796Z,102130.69
2022-08-28T13:18:39.989Z,102131.22
2022-08-28T13:21:32.820Z,102140.88
2022-08-28T13:24:21.764Z,102138.66
2022-08-28T13:27:09.354Z,102132.66
2022-08-28T13:29:36.911Z,102134.63
2022-08-28T13:32:09.899Z,102146.78
2022-08-28T13:34:38.903Z,102126.63
2022-08-28T13:37:51.580Z,102136.06
2022-08-28T13:43:11.822Z,102138.66
2022-08-28T13:45:43.390Z,102134.44
2022-08-28T13:48:15.859Z,102128.97
2022-08-28T13:50:47.194Z,102133.28
2022-08-28T13:53:15.456Z,102134.66
2022-08-28T13:55:41.797Z,102122.28
2022-08-28T13:58:08.220Z,102121.09
2022-08-28T14:00:39.606Z,102125.63
2022-08-28T14:03:06.001Z,102124.22
2022-08-28T14:05:32.438Z,102122.88
2022-08-28T14:07:58.826Z,102111.09
2022-08-28T14:10:25.277Z,102116.00
2022-08-28T14:12:51.700Z,102094.47
2022-08-28T14:15:18.098Z,102108.25
2022-08-28T14:17:45.093Z,102118.34
2022-08-28T14:20:12.789Z,102114.03
2022-08-28T14:22:39.206Z,102112.84
2022-08-28T14:25:06.233Z,102125.75
2022-08-28T14:27:32.643Z,102124.03
2022-08-28T14:29:58.982Z,102124.59
2022-08-28T14:32:25.341Z,102122.84
2022-08-28T14:34:51.713Z,102115.94
2022-08-28T14:37:18.066Z,102121.56
2022-08-28T14:39:44.480Z,102107.66
2022-08-28T14:42:12.945Z,102116.22
2022-08-28T14:44:39.716Z,102115.59
2022-08-28T14:47:06.112Z,102122.19
2022-08-28T14:49:32.543Z,102119.53
2022-08-28T14:51:58.908Z,102116.72
2022-08-28T14:54:25.882Z,102116.47
2022-08-28T14:56:54.024Z,102124.34
2022-08-28T14:59:24.623Z,102117.34
2022-08-28T15:01:53.222Z,102124.66
2022-08-28T15:04:22.325Z,102106.56
2022-08-28T15:06:50.031Z,102119.03
2022-08-28T15:09:17.459Z,102120.56
2022-08-28T15:11:44.110Z,102110.63
2022-08-28T15:14:11.758Z,102108.25
2022-08-28T15:16:42.523Z,102129.34
2022-08-28T15:19:09.776Z,102132.72
2022-08-28T15:21:40.164Z,102126.31
2022-08-28T15:24:07.588Z,102123.84
2022-08-28T15:26:34.324Z,102114.53
2022-08-28T15:29:01.354Z,102117.50
2022-08-28T15:31:34.138Z,102125.22
2022-08-28T15:34:13.567Z,102114.78
2022-08-28T15:36:42.043Z,102109.78
2022-08-28T15:39:09.373Z,102116.56
2022-08-28T15:41:35.836Z,102121.25
2022-08-28T15:44:03.398Z,102119.03
2022-08-28T15:46:33.065Z,102106.28
2022-08-28T15:49:03.925Z,102111.06
2022-08-28T15:51:35.105Z,102115.28
2022-08-28T15:54:02.368Z,102102.38
2022-08-28T15:56:28.728Z,102095.88
2022-08-28T15:58:55.107Z,102087.31
2022-08-28T16:01:21.677Z,102102.75
2022-08-28T16:03:48.104Z,102103.34
2022-08-28T16:06:17.513Z,102111.22
2022-08-28T16:08:44.341Z,102101.00
2022-08-28T16:11:14.484Z,102106.22
2022-08-28T16:13:40.816Z,102100.63
2022-08-28T16:16:07.270Z,102098.81
2022-08-28T16:18:33.722Z,102118.53
2022-08-28T16:21:04.171Z,102102.97
2022-08-28T16:23:32.197Z,102110.19
2022-08-28T16:25:59.709Z,102105.31
2022-08-28T16:28:26.126Z,102114.13
2022-08-28T16:30:54.011Z,102123.25
2022-08-28T16:33:20.402Z,102103.81
2022-08-28T16:35:55.008Z,102113.44
2022-08-28T16:38:22.709Z,102116.91
2022-08-28T16:40:49.300Z,102130.97
2022-08-28T16:43:15.855Z,102129.44
2022-08-28T16:45:44.297Z,102121.53
2022-08-28T16:48:12.290Z,102115.91
2022-08-28T16:50:40.376Z,102123.31
2022-08-28T16:53:07.383Z,102125.09
2022-08-28T16:55:34.249Z,102128.38
2022-08-28T16:58:00.633Z,102118.00
2022-08-28T17:00:27.067Z,102113.25
2022-08-28T17:02:54.132Z,102119.38
2022-08-28T17:05:20.720Z,102121.38
2022-08-28T17:07:48.235Z,102120.00
2022-08-28T17:10:17.759Z,102115.16
2022-08-28T17:12:44.169Z,102111.22
2022-08-28T17:15:11.427Z,102097.69
2022-08-28T17:17:38.179Z,102104.16
2022-08-28T17:20:05.962Z,102097.31
2022-08-28T17:22:32.517Z,102107.94
2022-08-28T17:25:06.311Z,102109.47
2022-08-28T17:27:33.662Z,102110.56
2022-08-28T17:30:00.446Z,102102.22
2022-08-28T17:32:27.625Z,102108.13
2022-08-28T17:34:54.008Z,102117.81
2022-08-28T17:37:20.378Z,102123.53
2022-08-28T17:39:47.691Z,102120.28
2022-08-28T17:42:14.077Z,102119.75
2022-08-28T17:44:40.493Z,102112.59
2022-08-28T17:47:07.412Z,102121.94
2022-08-28T17:49:33.837Z,102123.13
2022-08-28T17:52:00.267Z,102125.81
2022-08-28T17:54:26.623Z,102124.31
2022-08-28T17:56:53.440Z,102124.00
2022-08-28T17:59:21.192Z,102131.84
2022-08-28T18:01:47.700Z,102137.06
2022-08-28T18:04:18.005Z,102136.25
2022-08-28T18:06:47.991Z,102138.00
2022-08-28T18:09:14.743Z,102125.19
2022-08-28T18:11:41.734Z,102122.28
2022-08-28T18:14:08.177Z,102136.25
2022-08-28T18:16:36.428Z,102137.31
2022-08-28T18:19:05.308Z,102142.81
2022-08-28T18:21:32.129Z,102135.38
2022-08-28T18:23:58.824Z,102136.06
2022-08-28T18:26:25.351Z,102141.44
2022-08-28T18:28:51.847Z,102136.44
2022-08-28T18:31:18.527Z,102141.56
2022-08-28T18:33:46.120Z,102145.31
2022-08-28T18:36:14.232Z,102135.91
2022-08-28T18:38:41.923Z,102144.53
2022-08-28T18:41:09.445Z,102142.97
2022-08-28T18:43:36.281Z,102135.00
2022-08-28T18:46:04.631Z,102141.00
2022-08-28T18:48:31.923Z,102152.47
2022-08-28T18:50:58.243Z,102147.06
2022-08-28T18:53:24.895Z,102140.44
2022-08-28T18:55:53.796Z,102134.00
2022-08-28T18:58:21.058Z,102146.25
2022-08-28T19:00:47.590Z,102158.50
2022-08-28T19:03:14.009Z,102167.50
2022-08-28T19:05:40.400Z,102159.41
2022-08-28T19:08:07.170Z,102170.81
2022-08-28T19:10:35.168Z,102169.22
2022-08-28T19:13:02.628Z,102176.16
2022-08-28T19:15:29.986Z,102182.53
2022-08-28T19:17:56.455Z,102184.38
2022-08-28T19:20:22.979Z,102179.13
2022-08-28T19:22:49.697Z,102187.06
2022-08-28T19:25:28.679Z,102183.66
2022-08-28T19:27:59.822Z,102187.13
2022-08-28T19:30:28.268Z,102194.06
2022-08-28T19:32:55.238Z,102195.69
2022-08-28T19:35:24.093Z,102200.13
2022-08-28T19:37:54.374Z,102205.25
2022-08-28T19:40:21.646Z,102195.69
2022-08-28T19:42:48.501Z,102194.09
2022-08-28T19:45:15.301Z,102200.78
2022-08-28T19:47:42.511Z,102193.50
2022-08-28T19:50:11.310Z,102199.59
2022-08-28T19:52:37.794Z,102201.63
2022-08-28T19:55:05.758Z,102199.19
2022-08-28T19:57:33.129Z,102199.56
2022-08-28T19:59:59.569Z,102195.94
2022-08-28T20:02:29.153Z,102200.41
2022-08-28T20:04:55.569Z,102187.16
2022-08-28T20:07:22.344Z,102204.66
2022-08-28T20:09:48.730Z,102207.06
2022-08-28T20:12:15.100Z,102199.56
2022-08-28T20:14:41.462Z,102209.69
2022-08-28T20:17:07.876Z,102215.78
2022-08-28T20:19:34.233Z,102197.66
2022-08-28T20:22:00.585Z,102210.63
2022-08-28T20:24:27.082Z,102219.97
2022-08-28T20:26:53.650Z,102223.59
2022-08-28T20:29:20.685Z,102232.31
2022-08-28T20:31:47.869Z,102230.25
2022-08-28T20:34:17.172Z,102222.31
2022-08-28T20:36:43.986Z,102230.00
2022-08-28T20:39:10.405Z,102228.16
2022-08-28T20:41:38.931Z,102224.66
2022-08-28T20:44:07.112Z,102230.13
2022-08-28T20:46:39.817Z,102229.09
2022-08-28T20:49:08.992Z,102245.09
2022-08-28T20:51:35.519Z,102237.75
2022-08-28T20:54:01.845Z,102231.22
2022-08-28T20:56:28.188Z,102237.09
2022-08-28T20:58:54.559Z,102227.75
2022-08-28T21:01:20.944Z,102231.56
2022-08-28T21:03:47.438Z,102240.69
2022-08-28T21:06:13.781Z,102243.75
2022-08-28T21:08:40.171Z,102246.13
2022-08-28T21:11:06.545Z,102250.09
2022-08-28T21:13:32.873Z,102255.72
2022-08-28T21:15:59.219Z,102239.75
2022-08-28T21:18:25.636Z,102249.47
2022-08-28T21:20:54.580Z,102254.22
2022-08-28T21:23:20.937Z,102240.28
2022-08-28T21:25:47.260Z,102246.31
2022-08-28T21:28:13.687Z,102257.00
2022-08-28T21:30:40.978Z,102256.94
2022-08-28T21:33:07.346Z,102268.22
2022-08-28T21:35:34.540Z,102269.94
2022-08-28T21:38:00.878Z,102265.59
2022-08-28T21:40:27.251Z,102248.22
2022-08-28T21:42:53.657Z,102262.75
2022-08-28T21:45:20.016Z,102270.00
2022-08-28T21:47:46.424Z,102264.84
2022-08-28T21:50:12.941Z,102248.63
2022-08-28T21:52:39.999Z,102267.31
2022-08-28T21:55:10.697Z,102270.28
2022-08-28T21:57:37.260Z,102268.22
2022-08-28T22:00:09.998Z,102272.38
2022-08-28T22:02:36.400Z,102264.13
2022-08-28T22:05:03.491Z,102275.44
2022-08-28T22:07:29.965Z,102277.34
2022-08-28T22:09:56.299Z,102268.06
2022-08-28T22:12:22.719Z,102265.69
2022-08-28T22:14:49.218Z,102275.38
2022-08-28T22:17:15.697Z,102276.63
2022-08-28T22:19:42.343Z,102289.75
2022-08-28T22:22:12.888Z,102288.00
2022-08-28T22:24:39.285Z,102289.34
2022-08-28T22:27:05.736Z,102287.44
2022-08-28T22:29:32.379Z,102273.09
2022-08-28T22:31:58.729Z,102292.75
2022-08-28T22:34:25.101Z,102280.66
2022-08-28T22:36:51.437Z,102273.97
2022-08-28T22:39:17.807Z,102280.00
2022-08-28T22:41:44.133Z,102284.75
2022-08-28T22:44:10.482Z,102285.72
2022-08-28T22:46:36.935Z,102278.03
2022-08-28T22:49:03.838Z,102269.88
2022-08-28T22:51:32.688Z,102278.63
2022-08-28T22:53:59.028Z,102266.91
2022-08-28T22:56:25.368Z,102266.53
2022-08-28T22:58:51.735Z,102252.81
2022-08-28T23:01:22.688Z,102261.06
2022-08-28T23:03:49.412Z,102244.09
2022-08-28T23:06:16.089Z,102256.56
2022-08-28T23:08:42.986Z,102263.94
2022-08-28T23:11:09.882Z,102264.28
2022-08-28T23:13:36.682Z,102268.88
2022-08-28T23:16:03.421Z,102261.84
2022-08-28T23:18:41.515Z,102259.22
2022-08-28T23:21:12.980Z,102257.25
2022-08-28T23:23:39.376Z,102251.06
2022-08-28T23:26:10.600Z,102256.81
2022-08-28T23:28:36.936Z,102259.75
2022-08-28T23:31:03.284Z,102256.31
2022-08-28T23:33:29.633Z,102250.94
2022-08-28T23:35:55.988Z,102262.09
2022-08-28T23:38:22.357Z,102246.38
2022-08-28T23:40:48.810Z,102241.47
2022-08-28T23:43:17.302Z,102252.91
2022-08-28T23:45:44.017Z,102251.44
2022-08-28T23:48:10.942Z,102238.38
2022-08-28T23:50:39.995Z,102252.78
2022-08-28T23:53:08.514Z,102239.03
2022-08-28T23:55:35.744Z,102246.22
2022-08-28T23:58:03.572Z,102246.75
